createdAt,value
2019-06-10T00:02:05.256Z,30.23
2019-06-10T00:04:38.782Z,34.45
2019-06-10T00:07:12.035Z,28.50
2019-06-10T00:09:44.491Z,27.73
2019-06-10T00:12:17.063Z,29.00
2019-06-10T00:14:50.966Z,25.62
2019-06-10T00:17:23.683Z,22.22
2019-06-10T00:19:57.145Z,24.40
2019-06-10T00:22:31.528Z,22.32
2019-06-10T00:25:07.313Z,24.12
2019-06-10T00:30:13.861Z,19.50
2019-06-10T00:32:46.434Z,18.20
2019-06-10T00:35:21.117Z,19.32
2019-06-10T00:37:53.663Z,19.25
2019-06-10T00:40:26.134Z,21.05
2019-06-10T00:43:00.071Z,19.12
2019-06-10T00:45:32.769Z,17.30
2019-06-10T00:48:15.780Z,21.95
2019-06-10T00:50:41.391Z,24.32
2019-06-10T00:53:14.823Z,20.23
2019-06-10T00:55:47.339Z,23.07
2019-06-10T00:58:21.634Z,26.87
2019-06-10T01:00:53.794Z,24.60
2019-06-10T01:03:26.325Z,25.48
2019-06-10T01:06:01.136Z,30.82
2019-06-10T01:08:33.124Z,35.68
2019-06-10T01:11:12.526Z,40.90
2019-06-10T01:13:41.377Z,50.23
2019-06-10T01:16:15.507Z,40.98
2019-06-10T01:18:51.069Z,46.05
2019-06-10T01:21:23.599Z,40.10
2019-06-10T01:23:56.049Z,35.20
2019-06-10T01:26:30.871Z,39.27
2019-06-10T01:29:03.007Z,36.03
2019-06-10T01:31:35.477Z,28.90
2019-06-10T01:34:07.899Z,32.45
2019-06-10T01:36:40.778Z,27.02
2019-06-10T01:39:14.877Z,28.80
2019-06-10T01:41:47.759Z,26.40
2019-06-10T01:44:22.010Z,25.20
2019-06-10T01:46:54.502Z,25.45
2019-06-10T01:49:27.250Z,26.23
2019-06-10T01:52:01.677Z,37.17
2019-06-10T01:54:34.769Z,44.42
2019-06-10T01:57:07.742Z,42.53
2019-06-10T01:59:41.293Z,46.15
2019-06-10T02:02:17.293Z,42.43
2019-06-10T02:04:51.754Z,45.23
2019-06-10T02:07:24.762Z,44.75
2019-06-10T02:09:57.197Z,31.50
2019-06-10T02:12:31.531Z,30.92
2019-06-10T02:15:07.800Z,38.40
2019-06-10T02:17:41.720Z,65.57
2019-06-10T02:20:16.855Z,79.47
2019-06-10T02:22:51.577Z,111.92
2019-06-10T02:25:24.245Z,112.28
2019-06-10T02:27:56.797Z,69.58
2019-06-10T02:30:41.758Z,45.98
2019-06-10T02:33:03.674Z,33.03
2019-06-10T02:35:43.910Z,36.53
2019-06-10T02:38:10.315Z,32.55
2019-06-10T02:40:43.679Z,36.73
2019-06-10T02:43:20.970Z,29.75
2019-06-10T02:45:53.103Z,34.48
2019-06-10T02:48:30.446Z,29.18
2019-06-10T02:51:07.516Z,30.00
2019-06-10T02:53:43.086Z,27.73
2019-06-10T02:56:17.730Z,19.92
2019-06-10T02:58:53.249Z,20.65
2019-06-10T03:01:31.892Z,23.30
2019-06-10T03:03:58.332Z,17.73
2019-06-10T03:06:36.301Z,14.65
2019-06-10T03:09:07.226Z,15.80
2019-06-10T03:11:41.531Z,13.53
2019-06-10T03:14:16.235Z,15.10
2019-06-10T03:16:52.587Z,17.50
2019-06-10T03:19:41.856Z,18.95
2019-06-10T03:22:02.610Z,15.88
2019-06-10T03:24:34.486Z,16.20
2019-06-10T03:27:08.333Z,15.65
2019-06-10T03:29:42.143Z,12.95
2019-06-10T03:32:17.687Z,14.30
2019-06-10T03:34:49.663Z,12.83
2019-06-10T03:37:23.245Z,19.48
2019-06-10T03:39:56.349Z,15.17
2019-06-10T03:42:28.868Z,15.32
2019-06-10T03:45:03.322Z,16.50
2019-06-10T03:47:35.665Z,14.78
2019-06-10T03:50:13.212Z,16.85
2019-06-10T03:52:46.162Z,15.72
2019-06-10T03:55:19.348Z,15.25
2019-06-10T03:57:52.653Z,16.27
2019-06-10T04:00:27.303Z,18.62
2019-06-10T04:02:59.864Z,20.60
2019-06-10T04:05:33.127Z,25.57
2019-06-10T04:08:05.717Z,33.02
2019-06-10T04:10:38.435Z,30.23
2019-06-10T04:13:13.192Z,29.12
2019-06-10T04:15:45.954Z,27.20
2019-06-10T04:18:19.688Z,24.82
2019-06-10T04:20:52.948Z,27.73
2019-06-10T04:23:26.913Z,32.35
2019-06-10T04:26:02.047Z,34.43
2019-06-10T04:28:34.224Z,31.27
2019-06-10T04:31:06.821Z,31.15
2019-06-10T04:33:39.311Z,27.37
2019-06-10T04:36:13.432Z,29.60
2019-06-10T04:38:45.919Z,25.27
2019-06-10T04:41:18.425Z,22.93
2019-06-10T04:43:52.999Z,33.23
2019-06-10T04:46:26.477Z,25.70
2019-06-10T04:49:02.496Z,18.73
2019-06-10T04:51:34.307Z,21.17
2019-06-10T04:54:07.365Z,23.35
2019-06-10T04:56:39.970Z,22.95
2019-06-10T04:59:12.732Z,26.40
2019-06-10T05:01:45.447Z,23.52
2019-06-10T05:04:18.921Z,22.42
2019-06-10T05:06:52.669Z,24.05
2019-06-10T05:09:27.620Z,26.13
2019-06-10T05:11:59.729Z,20.37
2019-06-10T05:14:33.404Z,17.80
2019-06-10T05:17:06.400Z,23.77
2019-06-10T05:19:39.143Z,22.98
2019-06-10T05:22:12.402Z,25.77
2019-06-10T05:24:47.921Z,30.35
2019-06-10T05:27:25.353Z,31.00
2019-06-10T05:29:57.096Z,28.80
2019-06-10T05:32:33.450Z,25.05
2019-06-10T05:35:07.733Z,21.97
2019-06-10T05:37:42.437Z,19.98
2019-06-10T05:40:15.015Z,29.07
2019-06-10T05:42:52.913Z,16.52
2019-06-10T05:45:27.477Z,20.10
2019-06-10T05:48:02.959Z,29.85
2019-06-10T05:50:35.436Z,20.10
2019-06-10T05:53:07.887Z,15.63
2019-06-10T05:55:42.729Z,16.82
2019-06-10T05:58:16.045Z,16.42
2019-06-10T06:00:53.126Z,14.73
2019-06-10T06:03:27.800Z,16.35
2019-06-10T06:06:02.895Z,12.30
2019-06-10T06:08:35.484Z,13.18
2019-06-10T06:11:08.106Z,12.50
2019-06-10T06:13:42.981Z,12.50
2019-06-10T06:16:15.012Z,11.73
2019-06-10T06:18:47.567Z,17.27
2019-06-10T06:21:28.885Z,11.20
2019-06-10T06:23:54.262Z,11.97
2019-06-10T06:26:28.456Z,9.80
2019-06-10T06:29:02.232Z,12.60
2019-06-10T06:31:36.505Z,13.55
2019-06-10T06:34:09.568Z,14.53
2019-06-10T06:36:42.359Z,9.68
2019-06-10T06:39:14.840Z,9.73
2019-06-10T06:41:48.949Z,11.83
2019-06-10T06:44:23.457Z,15.88
2019-06-10T06:46:56.097Z,9.48
2019-06-10T06:49:28.413Z,10.80
2019-06-10T06:52:02.866Z,12.15
2019-06-10T06:54:42.320Z,10.93
2019-06-10T06:57:14.083Z,12.98
2019-06-10T06:59:46.609Z,11.65
2019-06-10T07:02:22.757Z,8.13
2019-06-10T07:07:30.127Z,11.10
2019-06-10T07:10:03.573Z,13.80
2019-06-10T07:12:39.408Z,12.82
2019-06-10T07:15:12.845Z,11.53
2019-06-10T07:17:46.060Z,14.10
2019-06-10T07:20:20.282Z,11.38
2019-06-10T07:22:53.301Z,12.58
2019-06-10T07:25:26.006Z,14.20
2019-06-10T07:28:01.977Z,15.48
2019-06-10T07:30:37.655Z,13.25
2019-06-10T07:33:08.731Z,19.75
2019-06-10T07:35:43.752Z,22.17
2019-06-10T07:38:16.265Z,19.95
2019-06-10T07:40:53.053Z,22.27
2019-06-10T07:43:27.611Z,19.92
2019-06-10T07:46:03.417Z,24.47
2019-06-10T07:48:37.193Z,20.30
2019-06-10T07:51:12.889Z,26.40
2019-06-10T07:53:46.692Z,18.10
2019-06-10T07:56:18.804Z,18.77
2019-06-10T07:58:53.591Z,14.23
2019-06-10T08:01:26.080Z,14.78
2019-06-10T08:03:58.560Z,11.38
2019-06-10T08:06:36.109Z,13.10
2019-06-10T08:09:12.634Z,10.05
2019-06-10T08:11:48.780Z,11.08
2019-06-10T08:14:22.244Z,12.55
2019-06-10T08:16:56.519Z,9.08
2019-06-10T08:19:35.766Z,8.58
2019-06-10T08:22:05.344Z,8.28
2019-06-10T08:24:39.379Z,9.83
2019-06-10T08:27:13.361Z,7.92
2019-06-10T08:29:49.185Z,7.62
2019-06-10T08:32:24.229Z,9.40
2019-06-10T08:34:56.230Z,7.53
2019-06-10T08:37:28.544Z,9.98
2019-06-10T08:40:03.654Z,7.65
2019-06-10T08:42:34.907Z,8.70
2019-06-10T08:45:07.539Z,9.88
2019-06-10T08:47:41.151Z,7.80
2019-06-10T08:50:15.344Z,8.98
2019-06-10T08:53:03.938Z,11.43
2019-06-10T08:55:23.649Z,14.55
2019-06-10T08:57:56.763Z,10.53
2019-06-10T09:00:29.707Z,10.53
2019-06-10T09:03:04.162Z,8.10
2019-06-10T09:05:38.705Z,10.30
2019-06-10T09:08:13.001Z,8.70
2019-06-10T09:10:49.330Z,11.25
2019-06-10T09:13:19.705Z,8.10
2019-06-10T09:16:09.980Z,9.95
2019-06-10T09:18:26.661Z,10.32
2019-06-10T09:20:59.221Z,13.18
2019-06-10T09:23:33.188Z,12.13
2019-06-10T09:26:05.974Z,8.80
2019-06-10T09:28:39.427Z,8.68
2019-06-10T09:31:13.976Z,9.58
2019-06-10T09:33:50.222Z,7.95
2019-06-10T09:36:20.331Z,7.80
2019-06-10T09:38:54.987Z,9.05
2019-06-10T09:41:39.447Z,7.08
2019-06-10T09:44:03.277Z,9.93
2019-06-10T09:46:35.690Z,7.05
2019-06-10T09:49:08.147Z,10.45
2019-06-10T09:51:45.820Z,14.85
2019-06-10T09:54:16.419Z,8.85
2019-06-10T09:56:50.468Z,9.95
2019-06-10T09:59:23.695Z,9.48
2019-06-10T10:01:58.845Z,7.55
2019-06-10T10:04:32.633Z,9.00
2019-06-10T10:07:04.713Z,7.80
2019-06-10T10:09:37.257Z,6.75
2019-06-10T10:12:12.248Z,9.88
2019-06-10T10:14:46.942Z,6.90
2019-06-10T10:17:18.103Z,5.90
2019-06-10T10:19:54.839Z,5.92
2019-06-10T10:22:26.333Z,8.15
2019-06-10T10:24:58.684Z,6.37
2019-06-10T10:27:32.306Z,7.58
2019-06-10T10:30:07.885Z,6.28
2019-06-10T10:32:44.306Z,6.60
2019-06-10T10:35:15.529Z,7.45
2019-06-10T10:37:49.105Z,7.03
2019-06-10T10:40:24.212Z,6.42
2019-06-10T10:43:16.265Z,6.00
2019-06-10T10:45:32.536Z,8.90
2019-06-10T10:48:06.023Z,6.92
2019-06-10T10:50:38.319Z,6.92
2019-06-10T10:53:12.839Z,6.42
2019-06-10T10:55:45.251Z,6.85
2019-06-10T10:58:17.853Z,11.08
2019-06-10T11:00:54.431Z,5.87
2019-06-10T11:03:24.481Z,6.20
2019-06-10T11:06:00.670Z,6.15
2019-06-10T11:08:33.256Z,5.90
2019-06-10T11:11:06.015Z,6.40
2019-06-10T11:13:38.470Z,6.42
2019-06-10T11:16:11.947Z,6.00
2019-06-10T11:18:47.777Z,7.67
2019-06-10T11:23:59.929Z,6.83
2019-06-10T11:26:32.868Z,6.85
2019-06-10T11:29:07.221Z,9.93
2019-06-10T11:31:42.542Z,11.03
2019-06-10T11:34:19.730Z,9.95
2019-06-10T11:36:53.557Z,7.90
2019-06-10T11:39:33.828Z,6.35
2019-06-10T11:42:07.040Z,6.22
2019-06-10T11:44:43.035Z,7.97
2019-06-10T11:47:15.361Z,7.10
2019-06-10T11:49:48.959Z,6.33
2019-06-10T11:52:23.070Z,6.17
2019-06-10T11:55:09.164Z,10.43
2019-06-10T11:57:32.376Z,6.83
2019-06-10T12:00:13.629Z,7.47
2019-06-10T12:02:42.343Z,6.62
2019-06-10T12:05:17.412Z,6.08
2019-06-10T12:07:51.807Z,7.65
2019-06-10T12:10:27.849Z,8.60
2019-06-10T12:13:06.140Z,6.62
2019-06-10T12:16:19.847Z,7.03
2019-06-10T12:18:09.711Z,7.22
2019-06-10T12:20:42.659Z,9.60
2019-06-10T12:23:15.194Z,7.10
2019-06-10T12:25:48.112Z,12.05
2019-06-10T12:28:21.042Z,8.03
2019-06-10T12:30:58.248Z,7.58
2019-06-10T12:33:33.361Z,10.23
2019-06-10T12:36:07.697Z,8.95
2019-06-10T12:38:43.620Z,7.45
2019-06-10T12:43:48.643Z,6.60
2019-06-10T12:46:23.219Z,9.50
2019-06-10T12:48:59.297Z,7.17
2019-06-10T12:51:29.503Z,6.65
2019-06-10T12:54:04.812Z,7.12
2019-06-10T12:59:09.950Z,7.08
2019-06-10T13:01:44.789Z,7.80
2019-06-10T13:04:18.124Z,8.90
2019-06-10T13:06:52.597Z,6.80
2019-06-10T13:09:26.380Z,9.25
2019-06-10T13:11:59.815Z,10.95
2019-06-10T13:14:33.875Z,7.67
2019-06-10T13:17:08.353Z,7.28
2019-06-10T13:19:43.034Z,7.72
2019-06-10T13:22:15.623Z,9.93
2019-06-10T13:24:48.001Z,7.15
2019-06-10T13:27:22.742Z,11.73
2019-06-10T13:29:56.307Z,8.78
2019-06-10T13:32:29.367Z,7.15
2019-06-10T13:35:03.561Z,8.80
2019-06-10T13:37:35.961Z,7.92
2019-06-10T13:40:10.739Z,8.98
2019-06-10T13:42:42.930Z,7.45
2019-06-10T13:45:15.316Z,10.18
2019-06-10T13:47:48.207Z,7.47
2019-06-10T13:50:22.065Z,8.60
2019-06-10T13:52:58.467Z,7.92
2019-06-10T13:55:33.004Z,8.58
2019-06-10T13:58:07.989Z,11.05
2019-06-10T14:00:46.063Z,12.33
2019-06-10T14:03:16.270Z,15.35
2019-06-10T14:05:48.742Z,16.65
2019-06-10T14:08:23.264Z,34.23
2019-06-10T14:10:55.544Z,27.10
2019-06-10T14:13:28.034Z,16.10
2019-06-10T14:16:03.501Z,13.55
2019-06-10T14:18:36.701Z,10.95
2019-06-10T14:21:14.042Z,55.12
2019-06-10T14:23:44.066Z,33.90
2019-06-10T14:26:36.647Z,17.57
2019-06-10T14:28:56.368Z,11.93
2019-06-10T14:31:42.772Z,14.78
2019-06-10T14:34:04.333Z,12.60
2019-06-10T14:39:10.189Z,14.13
2019-06-10T14:41:43.375Z,14.45
2019-06-10T14:44:17.883Z,15.88
2019-06-10T14:46:50.176Z,16.25
2019-06-10T14:49:22.621Z,10.60
2019-06-10T14:51:56.639Z,9.85
2019-06-10T14:54:32.106Z,16.75
2019-06-10T14:57:05.236Z,54.93
2019-06-10T14:59:38.026Z,11.65
2019-06-10T15:02:12.876Z,12.23
2019-06-10T15:04:46.991Z,10.48
2019-06-10T15:07:20.841Z,16.27
2019-06-10T15:09:53.966Z,11.05
2019-06-10T15:12:26.406Z,11.55
2019-06-10T15:14:59.444Z,10.08
2019-06-10T15:17:32.548Z,7.87
2019-06-10T15:20:07.459Z,16.12
2019-06-10T15:22:40.016Z,12.75
2019-06-10T15:25:16.877Z,11.17
2019-06-10T15:27:48.343Z,11.75
2019-06-10T15:30:26.637Z,12.43
2019-06-10T15:32:55.393Z,11.73
2019-06-10T15:35:27.994Z,18.82
2019-06-10T15:38:03.961Z,13.68
2019-06-10T15:40:34.865Z,15.80
2019-06-10T15:43:07.793Z,15.83
2019-06-10T15:45:40.420Z,15.18
2019-06-10T15:48:16.633Z,17.92
2019-06-10T15:50:47.316Z,21.02
2019-06-10T15:53:25.323Z,15.45
2019-06-10T15:58:31.976Z,14.20
2019-06-10T16:01:04.500Z,22.07
2019-06-10T16:03:37.363Z,17.07
2019-06-10T16:06:12.039Z,12.20
2019-06-10T16:08:44.783Z,19.48
2019-06-10T16:11:18.923Z,13.45
2019-06-10T16:13:53.382Z,17.55
2019-06-10T16:16:26.053Z,15.25
2019-06-10T16:18:58.622Z,14.90
2019-06-10T16:21:31.225Z,11.38
2019-06-10T16:24:03.746Z,17.67
2019-06-10T16:26:36.444Z,14.33
2019-06-10T16:29:08.895Z,17.40
2019-06-10T16:31:42.542Z,14.03
2019-06-10T16:34:17.135Z,15.90
2019-06-10T16:36:53.365Z,21.07
2019-06-10T16:39:32.436Z,16.12
2019-06-10T16:42:07.590Z,14.18
2019-06-10T16:44:43.140Z,15.30
2019-06-10T16:47:16.943Z,18.20
2019-06-10T16:49:52.154Z,18.85
2019-06-10T16:52:27.697Z,18.48
2019-06-10T16:55:02.296Z,17.92
2019-06-10T16:57:35.508Z,21.80
2019-06-10T17:00:13.845Z,16.52
2019-06-10T17:02:44.710Z,15.43
2019-06-10T17:05:18.519Z,18.20
2019-06-10T17:07:52.661Z,14.40
2019-06-10T17:10:28.197Z,16.52
2019-06-10T17:13:03.126Z,16.53
2019-06-10T17:15:36.194Z,15.83
2019-06-10T17:18:13.081Z,16.30
2019-06-10T17:20:46.165Z,14.63
2019-06-10T17:23:26.988Z,13.95
2019-06-10T17:25:58.595Z,20.48
2019-06-10T17:28:36.617Z,15.35
2019-06-10T17:31:07.862Z,14.53
2019-06-10T17:33:42.665Z,15.28
2019-06-10T17:36:15.318Z,15.18
2019-06-10T17:38:47.894Z,15.63
2019-06-10T17:41:23.219Z,16.45
2019-06-10T17:43:55.333Z,15.83
2019-06-10T17:46:29.501Z,18.82
2019-06-10T17:49:03.075Z,16.00
2019-06-10T17:51:36.353Z,16.15
2019-06-10T17:54:09.568Z,16.23
2019-06-10T17:56:42.889Z,16.97
2019-06-10T17:59:16.012Z,19.77
2019-06-10T18:01:52.279Z,15.78
2019-06-10T18:04:25.613Z,22.82
2019-06-10T18:06:59.347Z,15.90
2019-06-10T18:09:36.634Z,19.17
2019-06-10T18:14:42.987Z,18.15
2019-06-10T18:17:16.357Z,16.15
2019-06-10T18:19:53.139Z,13.85
2019-06-10T18:22:26.468Z,17.85
2019-06-10T18:25:03.019Z,19.90
2019-06-10T18:27:36.970Z,18.35
2019-06-10T18:30:14.270Z,14.90
2019-06-10T18:32:48.076Z,14.15
2019-06-10T18:35:22.336Z,13.18
2019-06-10T18:37:56.696Z,13.28
2019-06-10T18:40:33.499Z,15.88
2019-06-10T18:43:07.665Z,13.93
2019-06-10T18:48:15.772Z,14.23
2019-06-10T18:50:49.576Z,14.65
2019-06-10T18:53:23.893Z,13.53
2019-06-10T18:55:59.059Z,16.37
2019-06-10T18:58:36.254Z,13.35
2019-06-10T19:01:12.432Z,14.50
2019-06-10T19:03:46.011Z,13.05
2019-06-10T19:06:22.798Z,15.55
2019-06-10T19:08:55.959Z,14.25
2019-06-10T19:14:05.280Z,14.18
2019-06-10T19:16:44.020Z,18.15
2019-06-10T19:19:18.617Z,16.80
2019-06-10T19:22:04.543Z,15.53
2019-06-10T19:24:28.444Z,19.87
2019-06-10T19:27:05.287Z,18.62
2019-06-10T19:29:45.445Z,15.48
2019-06-10T19:32:13.779Z,18.07
2019-06-10T19:34:51.992Z,18.80
2019-06-10T19:37:25.332Z,19.17
2019-06-10T19:40:01.623Z,15.70
2019-06-10T19:42:37.150Z,20.45
2019-06-10T19:45:12.555Z,20.57
2019-06-10T19:47:46.658Z,18.60
2019-06-10T19:50:20.264Z,15.00
2019-06-10T19:52:57.164Z,17.15
2019-06-10T19:55:32.455Z,19.10
2019-06-10T19:58:06.500Z,23.00
2019-06-10T20:00:41.484Z,20.32
2019-06-10T20:03:15.821Z,19.95
2019-06-10T20:05:52.749Z,19.62
2019-06-10T20:08:26.281Z,18.27
2019-06-10T20:11:03.391Z,16.97
2019-06-10T20:13:38.941Z,13.40
2019-06-10T20:16:12.144Z,14.10
2019-06-10T20:18:48.243Z,16.82
2019-06-10T20:21:22.706Z,15.95
2019-06-10T20:23:56.693Z,14.05
2019-06-10T20:26:32.981Z,16.50
2019-06-10T20:29:05.421Z,17.20
2019-06-10T20:31:40.091Z,14.00
2019-06-10T20:34:13.400Z,14.38
2019-06-10T20:36:46.942Z,16.57
2019-06-10T20:39:24.915Z,17.75
2019-06-10T20:41:58.249Z,17.70
2019-06-10T20:44:32.576Z,15.88
2019-06-10T20:47:05.058Z,15.32
2019-06-10T20:49:37.840Z,14.90
2019-06-10T20:52:13.277Z,14.80
2019-06-10T20:54:46.295Z,15.30
2019-06-10T20:57:18.873Z,14.60
2019-06-10T20:59:52.799Z,16.00
2019-06-10T21:02:26.266Z,17.40
2019-06-10T21:05:02.606Z,13.03
2019-06-10T21:07:39.219Z,16.52
2019-06-10T21:10:12.898Z,12.05
2019-06-10T21:12:49.432Z,13.08
2019-06-10T21:15:22.963Z,12.58
2019-06-10T21:17:55.471Z,13.32
2019-06-10T21:20:28.049Z,16.15
2019-06-10T21:23:03.110Z,26.70
2019-06-10T21:25:36.122Z,13.10
2019-06-10T21:28:08.721Z,14.70
2019-06-10T21:30:47.030Z,17.90
2019-06-10T21:33:15.490Z,13.20
2019-06-10T21:35:48.953Z,15.55
2019-06-10T21:38:23.203Z,15.60
2019-06-10T21:40:56.151Z,18.25
2019-06-10T21:43:28.648Z,18.15
2019-06-10T21:46:03.675Z,16.82
2019-06-10T21:48:37.386Z,19.98
2019-06-10T21:51:10.084Z,18.98
2019-06-10T21:53:42.641Z,22.17
2019-06-10T21:56:15.032Z,21.45
2019-06-10T21:58:48.842Z,26.15
2019-06-10T22:01:22.510Z,17.80
2019-06-10T22:04:00.849Z,20.57
2019-06-10T22:06:30.126Z,19.10
2019-06-10T22:09:03.985Z,17.20
2019-06-10T22:11:37.845Z,22.93
2019-06-10T22:14:12.110Z,20.35
2019-06-10T22:16:46.195Z,16.48
2019-06-10T22:19:19.143Z,16.50
2019-06-10T22:21:53.659Z,20.35
2019-06-10T22:24:25.933Z,19.62
2019-06-10T22:26:58.729Z,18.70
2019-06-10T22:29:32.244Z,19.32
2019-06-10T22:32:06.512Z,20.85
2019-06-10T22:34:39.157Z,17.70
2019-06-10T22:37:12.494Z,16.07
2019-06-10T22:39:45.678Z,16.32
2019-06-10T22:42:18.942Z,16.65
2019-06-10T22:44:54.512Z,15.08
2019-06-10T22:47:25.661Z,17.87
2019-06-10T22:49:59.964Z,17.92
2019-06-10T22:52:32.430Z,15.30
2019-06-10T22:55:09.330Z,15.43
2019-06-10T22:57:43.899Z,15.45
2019-06-10T23:00:16.338Z,13.80
2019-06-10T23:02:49.844Z,18.35
2019-06-10T23:05:23.294Z,15.28
2019-06-10T23:07:57.412Z,17.70
2019-06-10T23:10:30.427Z,14.58
2019-06-10T23:13:03.129Z,16.00
2019-06-10T23:15:35.705Z,19.52
2019-06-10T23:18:08.256Z,16.25
2019-06-10T23:20:42.733Z,17.32
2019-06-10T23:23:15.368Z,17.12
2019-06-10T23:25:47.882Z,17.92
2019-06-10T23:28:22.192Z,19.10
2019-06-10T23:30:57.286Z,14.13
2019-06-10T23:33:28.625Z,16.65
2019-06-10T23:36:03.723Z,16.65
2019-06-10T23:38:35.433Z,17.00
2019-06-10T23:41:07.798Z,13.13
2019-06-10T23:43:42.314Z,17.82
2019-06-10T23:46:14.562Z,16.67
2019-06-10T23:48:47.106Z,15.90
2019-06-10T23:51:19.639Z,18.50
2019-06-10T23:53:55.287Z,17.67
2019-06-10T23:56:26.869Z,18.15
2019-06-10T23:59:00.365Z,19.77
